sensor_id;sensor_type;location;lat;lon;timestamp;temperature;humidity
68235;DHT22;55052;52.056;5.296;2023-09-12T00:02:14;22.10;78.90
68235;DHT22;55052;52.056;5.296;2023-09-12T00:04:41;22.10;78.90
68235;DHT22;55052;52.056;5.296;2023-09-12T00:07:08;22.10;78.90
68235;DHT22;55052;52.056;5.296;2023-09-12T00:09:34;22.10;78.90
68235;DHT22;55052;52.056;5.296;2023-09-12T00:12:01;22.00;78.80
68235;DHT22;55052;52.056;5.296;2023-09-12T00:14:29;22.00;78.80
68235;DHT22;55052;52.056;5.296;2023-09-12T00:16:55;22.00;78.90
68235;DHT22;55052;52.056;5.296;2023-09-12T00:19:22;21.90;78.70
68235;DHT22;55052;52.056;5.296;2023-09-12T00:21:49;21.90;78.70
68235;DHT22;55052;52.056;5.296;2023-09-12T00:24:16;21.90;78.70
68235;DHT22;55052;52.056;5.296;2023-09-12T00:26:43;21.80;78.60
68235;DHT22;55052;52.056;5.296;2023-09-12T00:29:10;21.80;78.60
68235;DHT22;55052;52.056;5.296;2023-09-12T00:31:37;21.80;78.60
68235;DHT22;55052;52.056;5.296;2023-09-12T00:34:04;21.80;79.00
68235;DHT22;55052;52.056;5.296;2023-09-12T00:36:31;21.80;78.60
68235;DHT22;55052;52.056;5.296;2023-09-12T00:38:59;21.70;78.60
68235;DHT22;55052;52.056;5.296;2023-09-12T00:41:26;21.70;78.60
68235;DHT22;55052;52.056;5.296;2023-09-12T00:43:53;21.60;78.60
68235;DHT22;55052;52.056;5.296;2023-09-12T00:46:21;21.60;78.60
68235;DHT22;55052;52.056;5.296;2023-09-12T00:48:50;21.60;78.60
68235;DHT22;55052;52.056;5.296;2023-09-12T00:51:20;21.60;78.80
68235;DHT22;55052;52.056;5.296;2023-09-12T00:53:48;21.50;78.90
68235;DHT22;55052;52.056;5.296;2023-09-12T00:56:15;21.50;78.90
68235;DHT22;55052;52.056;5.296;2023-09-12T00:58:42;21.40;78.80
68235;DHT22;55052;52.056;5.296;2023-09-12T01:01:09;21.40;78.80
68235;DHT22;55052;52.056;5.296;2023-09-12T01:03:36;21.40;78.90
68235;DHT22;55052;52.056;5.296;2023-09-12T01:06:03;21.30;78.90
68235;DHT22;55052;52.056;5.296;2023-09-12T01:08:32;21.30;79.00
68235;DHT22;55052;52.056;5.296;2023-09-12T01:10:59;21.20;78.90
68235;DHT22;55052;52.056;5.296;2023-09-12T01:13:26;21.20;79.00
68235;DHT22;55052;52.056;5.296;2023-09-12T01:15:53;21.20;79.10
68235;DHT22;55052;52.056;5.296;2023-09-12T01:18:20;21.20;79.10
68235;DHT22;55052;52.056;5.296;2023-09-12T01:26:37;21.10;79.20
68235;DHT22;55052;52.056;5.296;2023-09-12T01:29:06;21.00;79.10
68235;DHT22;55052;52.056;5.296;2023-09-12T01:31:35;20.90;79.10
68235;DHT22;55052;52.056;5.296;2023-09-12T01:34:10;21.00;79.20
68235;DHT22;55052;52.056;5.296;2023-09-12T01:36:37;20.90;79.20
68235;DHT22;55052;52.056;5.296;2023-09-12T01:39:04;20.90;79.30
68235;DHT22;55052;52.056;5.296;2023-09-12T01:41:35;20.90;79.40
68235;DHT22;55052;52.056;5.296;2023-09-12T01:44:06;20.80;79.50
68235;DHT22;55052;52.056;5.296;2023-09-12T01:46:34;20.80;79.60
68235;DHT22;55052;52.056;5.296;2023-09-12T01:49:03;20.80;80.50
68235;DHT22;55052;52.056;5.296;2023-09-12T01:51:31;20.80;79.80
68235;DHT22;55052;52.056;5.296;2023-09-12T01:53:58;20.70;79.70
68235;DHT22;55052;52.056;5.296;2023-09-12T01:56:27;20.70;79.80
68235;DHT22;55052;52.056;5.296;2023-09-12T01:58:54;20.70;79.80
68235;DHT22;55052;52.056;5.296;2023-09-12T02:01:21;20.70;79.90
68235;DHT22;55052;52.056;5.296;2023-09-12T02:03:48;20.70;80.10
68235;DHT22;55052;52.056;5.296;2023-09-12T02:06:15;20.70;80.10
68235;DHT22;55052;52.056;5.296;2023-09-12T02:08:42;20.60;80.10
68235;DHT22;55052;52.056;5.296;2023-09-12T02:11:09;20.60;80.40
68235;DHT22;55052;52.056;5.296;2023-09-12T02:13:35;20.60;80.70
68235;DHT22;55052;52.056;5.296;2023-09-12T02:16:02;20.60;80.70
68235;DHT22;55052;52.056;5.296;2023-09-12T02:18:30;20.60;80.70
68235;DHT22;55052;52.056;5.296;2023-09-12T02:20:58;20.50;80.70
68235;DHT22;55052;52.056;5.296;2023-09-12T02:23:25;20.60;80.80
68235;DHT22;55052;52.056;5.296;2023-09-12T02:25:52;20.50;80.80
68235;DHT22;55052;52.056;5.296;2023-09-12T02:28:19;20.50;80.90
68235;DHT22;55052;52.056;5.296;2023-09-12T02:30:45;20.50;81.00
68235;DHT22;55052;52.056;5.296;2023-09-12T02:33:12;20.50;81.00
68235;DHT22;55052;52.056;5.296;2023-09-12T02:35:39;20.50;81.00
68235;DHT22;55052;52.056;5.296;2023-09-12T02:38:06;20.50;81.00
68235;DHT22;55052;52.056;5.296;2023-09-12T02:40:33;20.40;81.00
68235;DHT22;55052;52.056;5.296;2023-09-12T02:43:00;20.40;81.00
68235;DHT22;55052;52.056;5.296;2023-09-12T02:45:27;20.40;81.00
68235;DHT22;55052;52.056;5.296;2023-09-12T02:47:54;20.50;81.10
68235;DHT22;55052;52.056;5.296;2023-09-12T02:50:21;20.40;81.10
68235;DHT22;55052;52.056;5.296;2023-09-12T02:52:47;20.40;81.40
68235;DHT22;55052;52.056;5.296;2023-09-12T02:55:14;20.40;82.30
68235;DHT22;55052;52.056;5.296;2023-09-12T02:57:41;20.50;81.60
68235;DHT22;55052;52.056;5.296;2023-09-12T03:00:08;20.40;81.60
68235;DHT22;55052;52.056;5.296;2023-09-12T03:02:35;20.40;81.60
68235;DHT22;55052;52.056;5.296;2023-09-12T03:05:03;20.40;81.80
68235;DHT22;55052;52.056;5.296;2023-09-12T03:07:30;20.40;81.90
68235;DHT22;55052;52.056;5.296;2023-09-12T03:09:57;20.40;82.20
68235;DHT22;55052;52.056;5.296;2023-09-12T03:12:24;20.40;82.30
68235;DHT22;55052;52.056;5.296;2023-09-12T03:14:50;20.40;82.30
68235;DHT22;55052;52.056;5.296;2023-09-12T03:17:17;20.40;82.30
68235;DHT22;55052;52.056;5.296;2023-09-12T03:19:44;20.40;82.30
68235;DHT22;55052;52.056;5.296;2023-09-12T03:22:11;20.30;82.30
68235;DHT22;55052;52.056;5.296;2023-09-12T03:24:37;20.40;82.40
68235;DHT22;55052;52.056;5.296;2023-09-12T03:27:04;20.30;82.20
68235;DHT22;55052;52.056;5.296;2023-09-12T03:29:31;20.30;82.20
68235;DHT22;55052;52.056;5.296;2023-09-12T03:31:58;20.30;82.20
68235;DHT22;55052;52.056;5.296;2023-09-12T03:34:25;20.30;82.20
68235;DHT22;55052;52.056;5.296;2023-09-12T03:36:52;20.30;82.20
68235;DHT22;55052;52.056;5.296;2023-09-12T03:39:18;20.30;82.20
68235;DHT22;55052;52.056;5.296;2023-09-12T03:41:45;20.30;82.20
68235;DHT22;55052;52.056;5.296;2023-09-12T03:44:12;20.30;82.30
68235;DHT22;55052;52.056;5.296;2023-09-12T03:46:39;20.30;82.20
68235;DHT22;55052;52.056;5.296;2023-09-12T03:49:06;20.30;82.20
68235;DHT22;55052;52.056;5.296;2023-09-12T03:51:33;20.30;82.20
68235;DHT22;55052;52.056;5.296;2023-09-12T03:54:01;20.30;82.30
68235;DHT22;55052;52.056;5.296;2023-09-12T03:56:29;20.30;82.20
68235;DHT22;55052;52.056;5.296;2023-09-12T03:58:56;20.30;82.20
68235;DHT22;55052;52.056;5.296;2023-09-12T04:01:24;20.30;82.20
68235;DHT22;55052;52.056;5.296;2023-09-12T04:03:51;20.20;82.10
68235;DHT22;55052;52.056;5.296;2023-09-12T04:06:18;20.20;82.20
68235;DHT22;55052;52.056;5.296;2023-09-12T04:08:45;20.20;82.20
68235;DHT22;55052;52.056;5.296;2023-09-12T04:11:12;20.20;82.20
68235;DHT22;55052;52.056;5.296;2023-09-12T04:13:38;20.20;82.30
68235;DHT22;55052;52.056;5.296;2023-09-12T04:16:05;20.20;82.30
68235;DHT22;55052;52.056;5.296;2023-09-12T04:18:32;20.20;82.30
68235;DHT22;55052;52.056;5.296;2023-09-12T04:20:59;20.20;82.40
68235;DHT22;55052;52.056;5.296;2023-09-12T04:23:26;20.20;82.60
68235;DHT22;55052;52.056;5.296;2023-09-12T04:25:53;20.20;82.60
68235;DHT22;55052;52.056;5.296;2023-09-12T04:28:20;20.20;82.70
68235;DHT22;55052;52.056;5.296;2023-09-12T04:30:47;20.10;82.70
68235;DHT22;55052;52.056;5.296;2023-09-12T04:33:13;20.20;82.70
68235;DHT22;55052;52.056;5.296;2023-09-12T04:35:40;20.20;82.70
68235;DHT22;55052;52.056;5.296;2023-09-12T04:38:07;20.20;82.70
68235;DHT22;55052;52.056;5.296;2023-09-12T04:40:34;20.20;82.60
68235;DHT22;55052;52.056;5.296;2023-09-12T04:43:01;20.10;82.50
68235;DHT22;55052;52.056;5.296;2023-09-12T04:45:27;20.20;82.50
68235;DHT22;55052;52.056;5.296;2023-09-12T04:47:54;20.10;82.40
68235;DHT22;55052;52.056;5.296;2023-09-12T04:50:21;20.10;82.40
68235;DHT22;55052;52.056;5.296;2023-09-12T04:52:48;20.10;82.50
68235;DHT22;55052;52.056;5.296;2023-09-12T04:55:14;20.10;82.50
68235;DHT22;55052;52.056;5.296;2023-09-12T04:57:41;20.10;82.60
68235;DHT22;55052;52.056;5.296;2023-09-12T05:00:09;20.10;82.60
68235;DHT22;55052;52.056;5.296;2023-09-12T05:02:37;20.10;82.60
68235;DHT22;55052;52.056;5.296;2023-09-12T05:05:05;20.00;83.40
68235;DHT22;55052;52.056;5.296;2023-09-12T05:07:31;20.00;82.60
68235;DHT22;55052;52.056;5.296;2023-09-12T05:09:58;20.00;82.60
68235;DHT22;55052;52.056;5.296;2023-09-12T05:12:25;20.00;82.70
68235;DHT22;55052;52.056;5.296;2023-09-12T05:14:53;20.00;82.80
68235;DHT22;55052;52.056;5.296;2023-09-12T05:17:19;20.00;82.80
68235;DHT22;55052;52.056;5.296;2023-09-12T05:19:46;19.90;82.80
68235;DHT22;55052;52.056;5.296;2023-09-12T05:22:13;19.90;82.80
68235;DHT22;55052;52.056;5.296;2023-09-12T05:24:40;19.90;82.80
68235;DHT22;55052;52.056;5.296;2023-09-12T05:27:06;19.90;82.90
68235;DHT22;55052;52.056;5.296;2023-09-12T05:29:33;19.90;82.80
68235;DHT22;55052;52.056;5.296;2023-09-12T05:32:00;19.90;82.90
68235;DHT22;55052;52.056;5.296;2023-09-12T05:34:27;19.90;83.00
68235;DHT22;55052;52.056;5.296;2023-09-12T05:36:54;19.80;83.00
68235;DHT22;55052;52.056;5.296;2023-09-12T05:39:21;19.80;83.00
68235;DHT22;55052;52.056;5.296;2023-09-12T05:41:49;19.80;83.00
68235;DHT22;55052;52.056;5.296;2023-09-12T05:44:15;19.80;82.90
68235;DHT22;55052;52.056;5.296;2023-09-12T05:46:48;19.80;83.00
68235;DHT22;55052;52.056;5.296;2023-09-12T05:49:15;19.80;83.00
68235;DHT22;55052;52.056;5.296;2023-09-12T05:51:42;19.80;83.00
68235;DHT22;55052;52.056;5.296;2023-09-12T05:54:10;19.70;83.00
68235;DHT22;55052;52.056;5.296;2023-09-12T05:56:38;19.80;83.10
68235;DHT22;55052;52.056;5.296;2023-09-12T05:59:06;19.80;83.10
68235;DHT22;55052;52.056;5.296;2023-09-12T06:01:33;19.80;84.00
68235;DHT22;55052;52.056;5.296;2023-09-12T06:04:00;19.80;83.20
68235;DHT22;55052;52.056;5.296;2023-09-12T06:06:27;19.80;83.20
68235;DHT22;55052;52.056;5.296;2023-09-12T06:08:54;19.80;83.20
68235;DHT22;55052;52.056;5.296;2023-09-12T06:11:21;19.80;83.30
68235;DHT22;55052;52.056;5.296;2023-09-12T06:13:48;19.80;83.40
68235;DHT22;55052;52.056;5.296;2023-09-12T06:16:15;19.80;83.50
68235;DHT22;55052;52.056;5.296;2023-09-12T06:18:41;19.80;83.50
68235;DHT22;55052;52.056;5.296;2023-09-12T06:21:09;19.80;83.50
68235;DHT22;55052;52.056;5.296;2023-09-12T06:23:36;19.80;83.60
68235;DHT22;55052;52.056;5.296;2023-09-12T06:26:03;19.80;83.70
68235;DHT22;55052;52.056;5.296;2023-09-12T06:28:31;19.80;83.80
68235;DHT22;55052;52.056;5.296;2023-09-12T06:30:58;19.80;83.90
68235;DHT22;55052;52.056;5.296;2023-09-12T06:33:26;19.80;84.00
68235;DHT22;55052;52.056;5.296;2023-09-12T06:35:53;19.90;85.10
68235;DHT22;55052;52.056;5.296;2023-09-12T06:38:22;19.90;84.30
68235;DHT22;55052;52.056;5.296;2023-09-12T06:40:49;19.90;84.40
68235;DHT22;55052;52.056;5.296;2023-09-12T06:43:16;19.90;84.60
68235;DHT22;55052;52.056;5.296;2023-09-12T06:45:43;19.90;84.60
68235;DHT22;55052;52.056;5.296;2023-09-12T06:48:10;20.00;84.80
68235;DHT22;55052;52.056;5.296;2023-09-12T06:50:37;20.00;84.80
68235;DHT22;55052;52.056;5.296;2023-09-12T06:53:05;20.00;84.90
68235;DHT22;55052;52.056;5.296;2023-09-12T06:55:36;20.00;85.00
68235;DHT22;55052;52.056;5.296;2023-09-12T06:58:03;20.00;85.10
68235;DHT22;55052;52.056;5.296;2023-09-12T07:00:30;20.10;85.20
68235;DHT22;55052;52.056;5.296;2023-09-12T07:02:58;20.10;85.20
68235;DHT22;55052;52.056;5.296;2023-09-12T07:05:25;20.10;85.20
68235;DHT22;55052;52.056;5.296;2023-09-12T07:07:52;20.10;85.20
68235;DHT22;55052;52.056;5.296;2023-09-12T07:10:19;20.10;85.20
68235;DHT22;55052;52.056;5.296;2023-09-12T07:12:52;20.20;85.30
68235;DHT22;55052;52.056;5.296;2023-09-12T07:15:19;20.20;85.40
68235;DHT22;55052;52.056;5.296;2023-09-12T07:17:46;20.30;85.40
68235;DHT22;55052;52.056;5.296;2023-09-12T07:20:14;20.30;85.40
68235;DHT22;55052;52.056;5.296;2023-09-12T07:22:42;20.30;85.30
68235;DHT22;55052;52.056;5.296;2023-09-12T07:25:09;20.40;85.30
68235;DHT22;55052;52.056;5.296;2023-09-12T07:27:38;20.30;85.20
68235;DHT22;55052;52.056;5.296;2023-09-12T07:30:06;20.40;85.20
68235;DHT22;55052;52.056;5.296;2023-09-12T07:32:33;20.30;85.20
68235;DHT22;55052;52.056;5.296;2023-09-12T07:35:00;20.40;85.30
68235;DHT22;55052;52.056;5.296;2023-09-12T07:37:27;20.40;85.40
68235;DHT22;55052;52.056;5.296;2023-09-12T07:39:54;20.40;85.50
68235;DHT22;55052;52.056;5.296;2023-09-12T07:42:22;20.40;85.50
68235;DHT22;55052;52.056;5.296;2023-09-12T07:44:49;20.50;85.70
68235;DHT22;55052;52.056;5.296;2023-09-12T07:47:17;20.50;85.70
68235;DHT22;55052;52.056;5.296;2023-09-12T07:49:44;20.50;85.80
68235;DHT22;55052;52.056;5.296;2023-09-12T07:52:11;20.60;85.80
68235;DHT22;55052;52.056;5.296;2023-09-12T07:54:38;20.70;85.90
68235;DHT22;55052;52.056;5.296;2023-09-12T07:57:04;20.70;85.80
68235;DHT22;55052;52.056;5.296;2023-09-12T07:59:31;20.80;85.90
68235;DHT22;55052;52.056;5.296;2023-09-12T08:01:58;20.80;85.90
68235;DHT22;55052;52.056;5.296;2023-09-12T08:04:25;20.80;85.90
68235;DHT22;55052;52.056;5.296;2023-09-12T08:06:52;20.90;86.10
68235;DHT22;55052;52.056;5.296;2023-09-12T08:09:54;21.00;86.30
68235;DHT22;55052;52.056;5.296;2023-09-12T08:12:22;21.00;86.40
68235;DHT22;55052;52.056;5.296;2023-09-12T08:14:49;21.10;86.60
68235;DHT22;55052;52.056;5.296;2023-09-12T08:17:16;21.10;86.70
68235;DHT22;55052;52.056;5.296;2023-09-12T08:19:43;21.20;86.80
68235;DHT22;55052;52.056;5.296;2023-09-12T08:22:11;21.30;87.00
68235;DHT22;55052;52.056;5.296;2023-09-12T08:24:39;21.30;87.10
68235;DHT22;55052;52.056;5.296;2023-09-12T08:27:06;21.40;87.10
68235;DHT22;55052;52.056;5.296;2023-09-12T08:29:34;21.40;87.30
68235;DHT22;55052;52.056;5.296;2023-09-12T08:32:01;21.50;87.30
68235;DHT22;55052;52.056;5.296;2023-09-12T08:34:29;21.50;87.30
68235;DHT22;55052;52.056;5.296;2023-09-12T08:36:56;21.60;88.20
68235;DHT22;55052;52.056;5.296;2023-09-12T08:39:27;21.70;87.40
68235;DHT22;55052;52.056;5.296;2023-09-12T08:41:54;21.70;87.20
68235;DHT22;55052;52.056;5.296;2023-09-12T08:44:21;21.70;87.10
68235;DHT22;55052;52.056;5.296;2023-09-12T08:46:48;21.80;87.00
68235;DHT22;55052;52.056;5.296;2023-09-12T08:49:16;21.80;87.00
68235;DHT22;55052;52.056;5.296;2023-09-12T08:51:43;21.90;86.90
68235;DHT22;55052;52.056;5.296;2023-09-12T08:54:11;21.90;86.70
68235;DHT22;55052;52.056;5.296;2023-09-12T08:56:40;22.00;86.60
68235;DHT22;55052;52.056;5.296;2023-09-12T08:59:10;22.00;86.50
68235;DHT22;55052;52.056;5.296;2023-09-12T09:01:37;22.10;86.30
68235;DHT22;55052;52.056;5.296;2023-09-12T09:04:05;22.20;86.30
68235;DHT22;55052;52.056;5.296;2023-09-12T09:06:34;22.20;86.20
68235;DHT22;55052;52.056;5.296;2023-09-12T09:09:05;22.30;86.10
68235;DHT22;55052;52.056;5.296;2023-09-12T09:11:33;22.40;86.00
68235;DHT22;55052;52.056;5.296;2023-09-12T09:14:02;22.40;86.50
68235;DHT22;55052;52.056;5.296;2023-09-12T09:16:30;22.50;85.60
68235;DHT22;55052;52.056;5.296;2023-09-12T09:18:59;22.50;85.40
68235;DHT22;55052;52.056;5.296;2023-09-12T09:21:29;22.50;85.10
68235;DHT22;55052;52.056;5.296;2023-09-12T09:24:00;22.60;84.90
68235;DHT22;55052;52.056;5.296;2023-09-12T09:26:51;22.60;84.70
68235;DHT22;55052;52.056;5.296;2023-09-12T09:29:25;22.70;84.50
68235;DHT22;55052;52.056;5.296;2023-09-12T09:31:52;22.70;84.50
68235;DHT22;55052;52.056;5.296;2023-09-12T09:34:20;22.70;84.20
68235;DHT22;55052;52.056;5.296;2023-09-12T09:39:17;22.70;83.80
68235;DHT22;55052;52.056;5.296;2023-09-12T09:41:56;22.80;83.90
68235;DHT22;55052;52.056;5.296;2023-09-12T09:44:25;22.80;83.80
68235;DHT22;55052;52.056;5.296;2023-09-12T09:47:00;22.90;83.80
68235;DHT22;55052;52.056;5.296;2023-09-12T09:49:32;22.90;83.80
68235;DHT22;55052;52.056;5.296;2023-09-12T09:52:03;22.90;83.60
68235;DHT22;55052;52.056;5.296;2023-09-12T09:54:31;23.00;83.60
68235;DHT22;55052;52.056;5.296;2023-09-12T09:56:58;23.00;83.30
68235;DHT22;55052;52.056;5.296;2023-09-12T09:59:26;23.10;83.70
68235;DHT22;55052;52.056;5.296;2023-09-12T10:01:58;23.10;82.70
68235;DHT22;55052;52.056;5.296;2023-09-12T10:04:29;23.20;82.50
68235;DHT22;55052;52.056;5.296;2023-09-12T10:07:10;23.20;82.20
68235;DHT22;55052;52.056;5.296;2023-09-12T10:09:37;23.20;81.90
68235;DHT22;55052;52.056;5.296;2023-09-12T10:12:05;23.20;81.70
68235;DHT22;55052;52.056;5.296;2023-09-12T10:14:33;23.30;82.20
68235;DHT22;55052;52.056;5.296;2023-09-12T10:17:02;23.30;81.60
68235;DHT22;55052;52.056;5.296;2023-09-12T10:19:43;23.30;81.30
68235;DHT22;55052;52.056;5.296;2023-09-12T10:22:20;23.30;81.40
68235;DHT22;55052;52.056;5.296;2023-09-12T10:24:49;23.30;81.30
68235;DHT22;55052;52.056;5.296;2023-09-12T10:27:19;23.30;81.20
68235;DHT22;55052;52.056;5.296;2023-09-12T10:29:46;23.30;81.00
68235;DHT22;55052;52.056;5.296;2023-09-12T10:32:17;23.40;80.90
68235;DHT22;55052;52.056;5.296;2023-09-12T10:34:45;23.40;80.80
68235;DHT22;55052;52.056;5.296;2023-09-12T10:37:16;23.40;80.40
68235;DHT22;55052;52.056;5.296;2023-09-12T10:39:45;23.40;80.50
68235;DHT22;55052;52.056;5.296;2023-09-12T10:42:13;23.50;80.50
68235;DHT22;55052;52.056;5.296;2023-09-12T10:44:40;23.60;80.40
68235;DHT22;55052;52.056;5.296;2023-09-12T10:47:07;23.60;80.20
68235;DHT22;55052;52.056;5.296;2023-09-12T10:49:35;23.70;80.10
68235;DHT22;55052;52.056;5.296;2023-09-12T10:52:03;23.60;79.80
68235;DHT22;55052;52.056;5.296;2023-09-12T10:54:38;23.70;79.60
68235;DHT22;55052;52.056;5.296;2023-09-12T10:57:07;23.70;79.40
68235;DHT22;55052;52.056;5.296;2023-09-12T10:59:35;23.70;79.40
68235;DHT22;55052;52.056;5.296;2023-09-12T11:02:27;23.70;79.40
68235;DHT22;55052;52.056;5.296;2023-09-12T11:05:02;23.80;79.40
68235;DHT22;55052;52.056;5.296;2023-09-12T11:13:08;24.00;78.40
68235;DHT22;55052;52.056;5.296;2023-09-12T11:16:09;24.10;78.00
68235;DHT22;55052;52.056;5.296;2023-09-12T11:21:50;24.20;78.00
68235;DHT22;55052;52.056;5.296;2023-09-12T11:24:18;24.30;78.00
68235;DHT22;55052;52.056;5.296;2023-09-12T11:26:59;24.40;78.60
68235;DHT22;55052;52.056;5.296;2023-09-12T11:29:28;24.40;77.20
68235;DHT22;55052;52.056;5.296;2023-09-12T11:31:58;24.40;77.30
68235;DHT22;55052;52.056;5.296;2023-09-12T11:34:26;24.40;77.10
68235;DHT22;55052;52.056;5.296;2023-09-12T11:36:58;24.40;77.10
68235;DHT22;55052;52.056;5.296;2023-09-12T11:39:32;24.40;77.00
68235;DHT22;55052;52.056;5.296;2023-09-12T11:42:00;24.40;76.90
68235;DHT22;55052;52.056;5.296;2023-09-12T11:44:28;24.40;77.00
68235;DHT22;55052;52.056;5.296;2023-09-12T11:46:55;24.40;76.90
68235;DHT22;55052;52.056;5.296;2023-09-12T11:49:22;24.40;76.70
68235;DHT22;55052;52.056;5.296;2023-09-12T11:51:52;24.40;76.50
68235;DHT22;55052;52.056;5.296;2023-09-12T11:54:24;24.50;76.50
68235;DHT22;55052;52.056;5.296;2023-09-12T11:56:52;24.60;76.50
68235;DHT22;55052;52.056;5.296;2023-09-12T11:59:23;24.60;76.40
68235;DHT22;55052;52.056;5.296;2023-09-12T12:01:50;24.70;76.50
68235;DHT22;55052;52.056;5.296;2023-09-12T12:04:17;24.80;76.30
68235;DHT22;55052;52.056;5.296;2023-09-12T12:06:44;24.80;76.30
68235;DHT22;55052;52.056;5.296;2023-09-12T12:09:11;24.90;76.20
68235;DHT22;55052;52.056;5.296;2023-09-12T12:11:39;25.00;76.90
68235;DHT22;55052;52.056;5.296;2023-09-12T12:14:11;25.00;75.60
68235;DHT22;55052;52.056;5.296;2023-09-12T12:16:38;25.10;75.20
68235;DHT22;55052;52.056;5.296;2023-09-12T12:19:05;25.20;74.90
68235;DHT22;55052;52.056;5.296;2023-09-12T12:21:31;25.30;74.80
68235;DHT22;55052;52.056;5.296;2023-09-12T12:24:02;25.40;74.50
68235;DHT22;55052;52.056;5.296;2023-09-12T12:26:30;25.40;73.80
68235;DHT22;55052;52.056;5.296;2023-09-12T12:29:03;25.50;73.80
68235;DHT22;55052;52.056;5.296;2023-09-12T12:31:30;25.60;73.70
68235;DHT22;55052;52.056;5.296;2023-09-12T12:33:59;25.60;73.10
68235;DHT22;55052;52.056;5.296;2023-09-12T12:36:46;25.70;73.10
68235;DHT22;55052;52.056;5.296;2023-09-12T12:39:24;25.70;72.60
68235;DHT22;55052;52.056;5.296;2023-09-12T12:41:54;25.80;72.20
68235;DHT22;55052;52.056;5.296;2023-09-12T12:44:21;25.80;71.40
68235;DHT22;55052;52.056;5.296;2023-09-12T12:46:53;25.90;70.80
68235;DHT22;55052;52.056;5.296;2023-09-12T12:49:21;25.90;70.60
68235;DHT22;55052;52.056;5.296;2023-09-12T12:51:49;26.00;70.50
68235;DHT22;55052;52.056;5.296;2023-09-12T12:54:16;26.00;70.10
68235;DHT22;55052;52.056;5.296;2023-09-12T12:56:43;26.00;69.50
68235;DHT22;55052;52.056;5.296;2023-09-12T12:59:12;26.10;69.10
68235;DHT22;55052;52.056;5.296;2023-09-12T13:01:39;26.10;68.90
68235;DHT22;55052;52.056;5.296;2023-09-12T13:04:09;26.10;68.70
68235;DHT22;55052;52.056;5.296;2023-09-12T13:06:36;26.10;68.20
68235;DHT22;55052;52.056;5.296;2023-09-12T13:09:04;26.10;68.10
68235;DHT22;55052;52.056;5.296;2023-09-12T13:11:32;26.20;67.80
68235;DHT22;55052;52.056;5.296;2023-09-12T13:14:03;26.20;68.40
68235;DHT22;55052;52.056;5.296;2023-09-12T13:16:37;26.20;68.10
68235;DHT22;55052;52.056;5.296;2023-09-12T13:19:06;26.30;68.40
68235;DHT22;55052;52.056;5.296;2023-09-12T13:21:33;26.30;68.10
68235;DHT22;55052;52.056;5.296;2023-09-12T13:24:00;26.40;68.40
68235;DHT22;55052;52.056;5.296;2023-09-12T13:26:29;26.40;67.80
68235;DHT22;55052;52.056;5.296;2023-09-12T13:28:56;26.40;67.00
68235;DHT22;55052;52.056;5.296;2023-09-12T13:31:24;26.50;66.80
68235;DHT22;55052;52.056;5.296;2023-09-12T13:33:51;26.50;66.50
68235;DHT22;55052;52.056;5.296;2023-09-12T13:36:18;26.50;65.90
68235;DHT22;55052;52.056;5.296;2023-09-12T13:38:45;26.50;66.00
68235;DHT22;55052;52.056;5.296;2023-09-12T13:41:14;26.60;66.00
68235;DHT22;55052;52.056;5.296;2023-09-12T13:43:41;26.50;65.90
68235;DHT22;55052;52.056;5.296;2023-09-12T13:46:11;26.50;65.70
68235;DHT22;55052;52.056;5.296;2023-09-12T13:48:38;26.50;65.70
68235;DHT22;55052;52.056;5.296;2023-09-12T13:51:05;26.50;66.90
68235;DHT22;55052;52.056;5.296;2023-09-12T13:53:31;26.50;66.50
68235;DHT22;55052;52.056;5.296;2023-09-12T13:55:58;26.60;66.80
68235;DHT22;55052;52.056;5.296;2023-09-12T13:58:43;26.80;66.80
68235;DHT22;55052;52.056;5.296;2023-09-12T14:01:17;27.10;66.60
68235;DHT22;55052;52.056;5.296;2023-09-12T14:03:58;27.20;67.30
68235;DHT22;55052;52.056;5.296;2023-09-12T14:06:26;27.30;66.40
68235;DHT22;55052;52.056;5.296;2023-09-12T14:08:53;27.50;65.90
68235;DHT22;55052;52.056;5.296;2023-09-12T14:11:20;27.60;65.90
68235;DHT22;55052;52.056;5.296;2023-09-12T14:14:00;27.70;65.40
68235;DHT22;55052;52.056;5.296;2023-09-12T14:16:40;27.70;64.90
68235;DHT22;55052;52.056;5.296;2023-09-12T14:19:11;27.80;65.10
68235;DHT22;55052;52.056;5.296;2023-09-12T14:21:38;27.80;65.30
68235;DHT22;55052;52.056;5.296;2023-09-12T14:24:07;27.80;64.70
68235;DHT22;55052;52.056;5.296;2023-09-12T14:26:36;27.70;64.80
68235;DHT22;55052;52.056;5.296;2023-09-12T14:29:04;27.60;64.90
68235;DHT22;55052;52.056;5.296;2023-09-12T14:31:32;27.50;65.40
68235;DHT22;55052;52.056;5.296;2023-09-12T14:33:58;27.50;65.90
68235;DHT22;55052;52.056;5.296;2023-09-12T14:36:25;27.50;66.00
68235;DHT22;55052;52.056;5.296;2023-09-12T14:38:52;27.50;65.90
68235;DHT22;55052;52.056;5.296;2023-09-12T14:41:19;27.50;65.80
68235;DHT22;55052;52.056;5.296;2023-09-12T14:43:46;27.50;65.90
68235;DHT22;55052;52.056;5.296;2023-09-12T14:46:13;27.50;66.00
68235;DHT22;55052;52.056;5.296;2023-09-12T14:48:40;27.50;66.30
68235;DHT22;55052;52.056;5.296;2023-09-12T14:51:15;27.60;66.20
68235;DHT22;55052;52.056;5.296;2023-09-12T14:53:54;27.60;66.00
68235;DHT22;55052;52.056;5.296;2023-09-12T14:56:20;27.70;65.50
68235;DHT22;55052;52.056;5.296;2023-09-12T14:58:47;27.80;65.30
68235;DHT22;55052;52.056;5.296;2023-09-12T15:01:14;27.80;65.00
68235;DHT22;55052;52.056;5.296;2023-09-12T15:03:41;27.90;64.90
68235;DHT22;55052;52.056;5.296;2023-09-12T15:06:08;27.80;64.90
68235;DHT22;55052;52.056;5.296;2023-09-12T15:08:35;27.80;65.00
68235;DHT22;55052;52.056;5.296;2023-09-12T15:11:03;27.80;65.10
68235;DHT22;55052;52.056;5.296;2023-09-12T15:13:30;27.70;65.00
68235;DHT22;55052;52.056;5.296;2023-09-12T15:15:57;27.60;65.00
68235;DHT22;55052;52.056;5.296;2023-09-12T15:18:24;27.50;65.10
68235;DHT22;55052;52.056;5.296;2023-09-12T15:20:52;27.40;65.10
68235;DHT22;55052;52.056;5.296;2023-09-12T15:23:20;27.40;65.30
68235;DHT22;55052;52.056;5.296;2023-09-12T15:25:49;27.30;65.00
68235;DHT22;55052;52.056;5.296;2023-09-12T15:28:17;27.20;64.80
68235;DHT22;55052;52.056;5.296;2023-09-12T15:30:44;27.10;64.70
68235;DHT22;55052;52.056;5.296;2023-09-12T15:33:11;27.00;64.70
68235;DHT22;55052;52.056;5.296;2023-09-12T15:35:38;26.90;64.30
68235;DHT22;55052;52.056;5.296;2023-09-12T15:38:06;26.80;64.30
68235;DHT22;55052;52.056;5.296;2023-09-12T15:40:33;26.80;64.50
68235;DHT22;55052;52.056;5.296;2023-09-12T15:43:00;26.70;64.60
68235;DHT22;55052;52.056;5.296;2023-09-12T15:45:48;26.70;64.60
68235;DHT22;55052;52.056;5.296;2023-09-12T15:48:17;26.60;64.70
68235;DHT22;55052;52.056;5.296;2023-09-12T15:50:44;26.60;64.80
68235;DHT22;55052;52.056;5.296;2023-09-12T15:53:11;26.60;65.60
68235;DHT22;55052;52.056;5.296;2023-09-12T15:55:38;26.50;64.80